Time;durP1;ratioP1;P1;durP2;ratioP2;P2;SDS_P1;SDS_P2;PMS_P1;PMS_P2;Temp;Humidity;BMP_temperature;BMP_pressure;BME280_temperature;BME280_humidity;BME280_pressure;Samples;Min_cycle;Max_cycle;Signal;HPM_P1;HPM_P2
2023/08/14 00:02:22;;;;;;;1.40;1.35;;;15.80;99.90;;;;;;4992411;28;20061;-86
2023/08/14 00:04:51;;;;;;;1.42;1.40;;;15.70;99.90;;;;;;4991153;28;20061;-86
2023/08/14 00:07:16;;;;;;;1.30;1.30;;;15.60;99.90;;;;;;4984632;28;20058;-85
2023/08/14 00:09:42;;;;;;;1.50;1.40;;;15.70;99.90;;;;;;4977434;28;20063;-86
2023/08/14 00:12:08;;;;;;;1.23;1.23;;;15.50;99.90;;;;;;4980595;28;20140;-85
2023/08/14 00:14:33;;;;;;;1.20;1.20;;;15.50;99.90;;;;;;4975749;28;20054;-85
2023/08/14 00:17:00;;;;;;;1.10;1.10;;;15.80;99.90;;;;;;4991546;28;20049;-85
2023/08/14 00:19:27;;;;;;;1.08;1.08;;;15.90;99.90;;;;;;4987683;28;20050;-85
2023/08/14 00:21:52;;;;;;;1.10;1.10;;;15.90;99.90;;;;;;4997368;28;20057;-85
2023/08/14 00:24:18;;;;;;;1.08;1.08;;;16.30;99.90;;;;;;4995382;28;20049;-85
2023/08/14 00:26:44;;;;;;;1.00;1.00;;;16.00;99.90;;;;;;4994468;28;20050;-85
2023/08/14 00:29:09;;;;;;;1.00;1.00;;;16.00;99.90;;;;;;4983446;28;20049;-85
2023/08/14 00:31:35;;;;;;;1.00;1.00;;;15.60;99.90;;;;;;4993823;28;20416;-85
2023/08/14 00:34:00;;;;;;;1.00;1.00;;;15.60;99.90;;;;;;4994383;28;20483;-85
2023/08/14 00:36:26;;;;;;;0.98;0.98;;;16.00;99.90;;;;;;5009922;28;20163;-84
2023/08/14 00:38:52;;;;;;;1.00;1.00;;;15.60;99.90;;;;;;4991252;28;20041;-85
2023/08/14 00:41:17;;;;;;;0.90;0.90;;;15.70;99.90;;;;;;4993952;28;20045;-85
2023/08/14 00:43:43;;;;;;;0.90;0.90;;;15.60;99.90;;;;;;4996546;28;20145;-85
2023/08/14 00:46:09;;;;;;;0.85;0.85;;;15.60;99.90;;;;;;4991258;28;20103;-84
2023/08/14 00:48:35;;;;;;;0.90;0.90;;;15.50;99.90;;;;;;4999116;28;20043;-84
2023/08/14 00:51:02;;;;;;;0.80;0.80;;;15.60;99.90;;;;;;4993149;28;20053;-84
2023/08/14 00:53:29;;;;;;;0.90;0.90;;;15.90;99.90;;;;;;4994423;28;20807;-85
2023/08/14 00:55:55;;;;;;;1.08;1.08;;;15.70;99.90;;;;;;4988305;28;20407;-85
2023/08/14 00:58:22;;;;;;;0.90;0.90;;;15.90;99.90;;;;;;4990776;28;20057;-84
2023/08/14 01:00:48;;;;;;;0.90;0.90;;;16.10;99.90;;;;;;5012138;28;20041;-84
2023/08/14 01:03:14;;;;;;;0.98;0.98;;;15.80;99.90;;;;;;4992961;28;20057;-84
2023/08/14 01:05:40;;;;;;;0.90;0.90;;;15.70;99.90;;;;;;4996305;28;20046;-84
2023/08/14 01:08:05;;;;;;;0.90;0.90;;;15.70;99.90;;;;;;4982834;28;20058;-85
2023/08/14 01:10:46;;;;;;;0.98;0.98;;;15.50;99.90;;;;;;4993870;28;20050;-85
2023/08/14 01:13:43;;;;;;;0.95;0.95;;;15.30;99.90;;;;;;4977269;28;20171;-85
2023/08/14 01:16:13;;;;;;;1.00;1.00;;;15.40;99.90;;;;;;4997036;28;20053;-85
2023/08/14 01:18:42;;;;;;;0.95;0.95;;;15.30;99.90;;;;;;4993191;28;20050;-84
2023/08/14 01:21:25;;;;;;;1.00;1.00;;;15.20;99.90;;;;;;4994101;28;20057;-84
2023/08/14 01:24:03;;;;;;;0.98;0.98;;;15.30;99.90;;;;;;4982826;28;20050;-85
2023/08/14 01:26:30;;;;;;;1.00;1.00;;;15.50;99.90;;;;;;4977668;28;20089;-85
2023/08/14 01:28:56;;;;;;;0.90;0.90;;;14.90;99.90;;;;;;4994704;28;20372;-85
2023/08/14 01:31:21;;;;;;;0.90;0.90;;;14.90;99.90;;;;;;4995534;28;20115;-85
2023/08/14 01:33:50;;;;;;;0.90;0.90;;;15.00;99.90;;;;;;4993938;28;20042;-84
2023/08/14 01:36:32;;;;;;;0.80;0.80;;;15.20;99.90;;;;;;4980301;28;20054;-84
2023/08/14 01:39:07;;;;;;;0.70;0.70;;;14.70;99.90;;;;;;4978882;28;20077;-85
2023/08/14 01:41:43;;;;;;;0.70;0.70;;;15.20;99.90;;;;;;4995185;28;20057;-84
2023/08/14 01:44:13;;;;;;;0.60;0.60;;;15.20;99.90;;;;;;4993181;28;20056;-84
2023/08/14 01:46:43;;;;;;;0.60;0.60;;;14.90;99.90;;;;;;5019346;28;20050;-85
2023/08/14 01:49:13;;;;;;;0.60;0.60;;;15.20;99.90;;;;;;4998488;28;20049;-84
2023/08/14 01:51:40;;;;;;;0.60;0.60;;;15.10;99.90;;;;;;4996344;28;20049;-85
2023/08/14 01:54:05;;;;;;;0.60;0.60;;;14.70;99.90;;;;;;4993110;28;20042;-84
2023/08/14 01:56:31;;;;;;;0.70;0.70;;;14.90;99.90;;;;;;4995410;28;20065;-85
2023/08/14 01:58:57;;;;;;;0.60;0.60;;;14.60;99.90;;;;;;4994974;28;20177;-85
2023/08/14 02:01:22;;;;;;;0.70;0.70;;;14.70;99.90;;;;;;5008132;28;20087;-84
2023/08/14 02:03:54;;;;;;;0.70;0.70;;;14.90;99.90;;;;;;5001118;28;20073;-84
2023/08/14 02:06:20;;;;;;;0.70;0.70;;;15.20;99.90;;;;;;4994801;28;20052;-85
2023/08/14 02:08:45;;;;;;;0.70;0.70;;;15.10;99.90;;;;;;4995698;28;20045;-84
2023/08/14 02:11:11;;;;;;;0.70;0.70;;;15.20;99.90;;;;;;4995941;28;20157;-84
2023/08/14 02:13:37;;;;;;;0.77;0.77;;;14.90;99.90;;;;;;4995124;28;20052;-84
2023/08/14 02:16:03;;;;;;;0.80;0.80;;;15.00;99.90;;;;;;4997511;28;20132;-84
2023/08/14 02:18:29;;;;;;;0.73;0.73;;;14.70;99.90;;;;;;4992488;28;20046;-85
2023/08/14 02:20:54;;;;;;;0.80;0.80;;;15.40;99.90;;;;;;4998638;28;20038;-84
2023/08/14 02:23:20;;;;;;;0.73;0.73;;;15.20;99.90;;;;;;5011446;28;20045;-84
2023/08/14 02:25:46;;;;;;;0.75;0.75;;;15.30;99.90;;;;;;4997798;28;20670;-84
2023/08/14 02:28:12;;;;;;;0.80;0.80;;;15.20;99.90;;;;;;4999178;28;20069;-85
2023/08/14 02:30:41;;;;;;;0.73;0.73;;;15.20;99.90;;;;;;4998693;28;20594;-85
2023/08/14 02:33:07;;;;;;;0.80;0.80;;;14.90;99.90;;;;;;5020579;28;20049;-84
2023/08/14 02:35:34;;;;;;;0.80;0.80;;;15.50;99.90;;;;;;4993323;28;20557;-85
2023/08/14 02:38:01;;;;;;;0.73;0.73;;;15.40;99.90;;;;;;4994012;28;20081;-85
2023/08/14 02:40:27;;;;;;;0.77;0.77;;;15.60;99.90;;;;;;4996070;28;21465;-84
2023/08/14 02:42:58;;;;;;;0.80;0.80;;;14.90;99.90;;;;;;4994295;28;20037;-84
2023/08/14 02:45:24;;;;;;;0.80;0.80;;;14.90;99.90;;;;;;4996290;28;20070;-85
2023/08/14 02:47:50;;;;;;;0.80;0.80;;;15.60;99.90;;;;;;4994773;28;20751;-84
2023/08/14 02:50:15;;;;;;;0.80;0.80;;;15.00;99.90;;;;;;4997130;28;20469;-84
2023/08/14 02:52:41;;;;;;;0.82;0.82;;;14.90;99.90;;;;;;4993466;28;20061;-85
2023/08/14 02:55:07;;;;;;;0.80;0.80;;;14.90;99.90;;;;;;4997534;28;20057;-84
2023/08/14 02:57:32;;;;;;;0.80;0.80;;;15.40;99.90;;;;;;4997882;28;20045;-84
2023/08/14 02:59:58;;;;;;;0.80;0.80;;;15.20;99.90;;;;;;4995903;28;20038;-84
2023/08/14 03:02:24;;;;;;;0.90;0.90;;;15.10;99.90;;;;;;4993727;28;20131;-84
2023/08/14 03:04:50;;;;;;;0.90;0.90;;;15.00;99.90;;;;;;4998603;28;20096;-84
2023/08/14 03:07:16;;;;;;;0.80;0.80;;;15.20;99.90;;;;;;4995334;28;20049;-84
2023/08/14 03:09:41;;;;;;;0.85;0.85;;;15.00;99.90;;;;;;4995795;28;20480;-85
2023/08/14 03:12:07;;;;;;;0.88;0.88;;;15.30;99.90;;;;;;4993828;28;20046;-84
2023/08/14 03:14:33;;;;;;;0.93;0.93;;;15.60;99.90;;;;;;5000909;28;20042;-84
2023/08/14 03:16:58;;;;;;;0.90;0.90;;;15.00;99.90;;;;;;4994298;28;20045;-84
2023/08/14 03:19:24;;;;;;;0.90;0.90;;;14.90;99.90;;;;;;4989240;28;20175;-84
2023/08/14 03:21:52;;;;;;;0.95;0.95;;;15.30;99.90;;;;;;5000038;28;20050;-84
2023/08/14 03:24:18;;;;;;;1.00;1.00;;;14.90;99.90;;;;;;4990367;28;20736;-84
2023/08/14 03:26:45;;;;;;;0.93;0.93;;;14.70;99.90;;;;;;4984213;28;20514;-85
2023/08/14 03:29:11;;;;;;;0.90;0.90;;;14.70;99.90;;;;;;5019180;28;20482;-84
2023/08/14 03:31:37;;;;;;;1.00;1.00;;;14.70;99.90;;;;;;4993385;28;20049;-85
2023/08/14 03:34:03;;;;;;;0.90;0.90;;;15.20;99.90;;;;;;4989613;28;20111;-84
2023/08/14 03:36:29;;;;;;;1.00;1.00;;;15.30;99.90;;;;;;4993449;28;20455;-84
2023/08/14 03:38:54;;;;;;;1.00;1.00;;;15.40;99.90;;;;;;4993796;28;20053;-83
2023/08/14 03:41:20;;;;;;;1.00;1.00;;;15.00;99.90;;;;;;4992608;28;20053;-84
2023/08/14 03:43:46;;;;;;;1.00;1.00;;;15.10;99.90;;;;;;4996511;28;20081;-85
2023/08/14 03:46:11;;;;;;;0.95;0.95;;;14.80;99.90;;;;;;5000286;28;20156;-84
2023/08/14 03:48:37;;;;;;;1.00;1.00;;;14.80;99.90;;;;;;4993126;28;20042;-84
2023/08/14 03:51:03;;;;;;;0.98;0.98;;;15.00;99.90;;;;;;4995620;28;20128;-84
2023/08/14 03:53:29;;;;;;;1.00;1.00;;;15.20;99.90;;;;;;4996420;28;20088;-84
2023/08/14 03:55:54;;;;;;;1.00;1.00;;;15.30;99.90;;;;;;4995798;28;20050;-85
2023/08/14 03:58:20;;;;;;;0.95;0.95;;;15.10;99.90;;;;;;4992997;28;20057;-85
2023/08/14 04:00:49;;;;;;;0.93;0.93;;;15.20;99.90;;;;;;4993625;28;20046;-83
2023/08/14 04:03:15;;;;;;;1.00;1.00;;;14.90;99.90;;;;;;4984500;28;20116;-85
2023/08/14 04:05:41;;;;;;;0.90;0.90;;;15.50;99.90;;;;;;4999061;28;20068;-84
2023/08/14 04:08:07;;;;;;;0.95;0.95;;;15.00;99.90;;;;;;4996074;28;20734;-84
2023/08/14 04:10:34;;;;;;;0.88;0.88;;;15.50;99.90;;;;;;4993547;28;20042;-84
2023/08/14 04:13:00;;;;;;;0.82;0.82;;;15.20;99.90;;;;;;4998025;28;20049;-85
2023/08/14 04:15:26;;;;;;;0.90;0.90;;;15.00;99.90;;;;;;4990876;28;20121;-84
2023/08/14 04:17:52;;;;;;;0.90;0.90;;;15.30;99.90;;;;;;4998310;28;20137;-84
2023/08/14 04:20:17;;;;;;;0.88;0.88;;;15.10;99.90;;;;;;4994396;28;22335;-86
2023/08/14 04:22:43;;;;;;;0.80;0.80;;;15.60;99.90;;;;;;4993173;28;20056;-84
2023/08/14 04:25:09;;;;;;;0.77;0.77;;;15.40;99.90;;;;;;4995175;28;22180;-86
2023/08/14 04:27:36;;;;;;;0.82;0.82;;;15.10;99.90;;;;;;4988094;28;20108;-84
2023/08/14 04:30:03;;;;;;;0.80;0.80;;;15.70;99.90;;;;;;4990697;28;20053;-86
2023/08/14 04:32:29;;;;;;;0.80;0.80;;;15.50;99.90;;;;;;4994401;28;20128;-86
2023/08/14 04:34:55;;;;;;;0.88;0.88;;;15.60;99.90;;;;;;4995848;28;20132;-84
2023/08/14 04:37:20;;;;;;;0.95;0.95;;;15.00;99.90;;;;;;4998531;28;20089;-84
2023/08/14 04:39:46;;;;;;;0.88;0.88;;;14.80;99.90;;;;;;4994752;28;20233;-85
2023/08/14 04:42:12;;;;;;;0.88;0.88;;;14.80;99.90;;;;;;4992753;28;20125;-85
2023/08/14 04:44:37;;;;;;;0.90;0.90;;;15.20;99.90;;;;;;4994697;28;20491;-84
2023/08/14 04:47:03;;;;;;;0.90;0.90;;;15.10;99.90;;;;;;4994127;28;20066;-85
2023/08/14 04:49:29;;;;;;;0.93;0.93;;;15.10;99.90;;;;;;4990559;28;20050;-85
2023/08/14 04:51:54;;;;;;;0.85;0.85;;;14.80;99.90;;;;;;4993946;28;20056;-84
2023/08/14 04:54:21;;;;;;;0.90;0.90;;;14.90;99.90;;;;;;4988886;28;20104;-84
2023/08/14 04:56:46;;;;;;;0.90;0.90;;;14.90;99.90;;;;;;4991463;28;20053;-84
2023/08/14 04:59:12;;;;;;;0.93;0.93;;;15.20;99.90;;;;;;4996526;28;20500;-84
2023/08/14 05:01:38;;;;;;;0.85;0.85;;;15.40;99.90;;;;;;4995053;28;21970;-84
2023/08/14 05:04:04;;;;;;;0.90;0.90;;;15.60;99.90;;;;;;4993729;28;20041;-84
2023/08/14 05:06:29;;;;;;;0.90;0.90;;;15.20;99.90;;;;;;4992922;28;20550;-85
2023/08/14 05:08:55;;;;;;;0.90;0.90;;;15.60;99.90;;;;;;5014444;28;20046;-84
2023/08/14 05:11:20;;;;;;;0.98;0.98;;;15.30;99.90;;;;;;4993157;28;20495;-84
2023/08/14 05:13:47;;;;;;;0.90;0.90;;;15.70;99.90;;;;;;4988019;28;20046;-85
2023/08/14 05:16:13;;;;;;;1.00;1.00;;;15.90;99.90;;;;;;4993516;28;20046;-85
2023/08/14 05:18:39;;;;;;;1.20;1.20;;;16.10;99.90;;;;;;4998244;28;20046;-85
2023/08/14 05:21:04;;;;;;;1.38;1.35;;;16.20;99.90;;;;;;4993761;28;20054;-86
2023/08/14 05:23:30;;;;;;;1.20;1.20;;;17.00;99.90;;;;;;4997472;28;20052;-85
2023/08/14 05:25:56;;;;;;;1.00;1.00;;;17.40;99.90;;;;;;4995909;28;20484;-85
2023/08/14 05:28:21;;;;;;;0.75;0.75;;;17.20;99.90;;;;;;4984657;28;20132;-85
2023/08/14 05:30:47;;;;;;;0.60;0.60;;;18.90;99.90;;;;;;4996548;28;20164;-85
2023/08/14 05:33:13;;;;;;;0.60;0.60;;;19.30;99.90;;;;;;4998693;28;20089;-85
2023/08/14 05:35:39;;;;;;;0.60;0.60;;;19.40;99.90;;;;;;4995544;28;20104;-86
2023/08/14 05:38:05;;;;;;;0.70;0.70;;;19.60;99.90;;;;;;4991375;28;20082;-85
2023/08/14 05:40:31;;;;;;;0.80;0.80;;;19.90;99.90;;;;;;5000018;28;20395;-85
2023/08/14 05:43:06;;;;;;;0.70;0.70;;;19.80;99.90;;;;;;4992618;28;20046;-86
2023/08/14 05:45:42;;;;;;;1.00;1.00;;;21.30;99.90;;;;;;4999567;28;20049;-86
2023/08/14 05:48:08;;;;;;;0.70;0.70;;;21.90;99.90;;;;;;5011001;28;20646;-86
2023/08/14 05:50:40;;;;;;;0.60;0.60;;;21.40;99.90;;;;;;4992522;28;20573;-86
2023/08/14 05:53:07;;;;;;;0.57;0.57;;;22.10;99.90;;;;;;4990483;28;20610;-86
2023/08/14 05:55:38;;;;;;;0.50;0.50;;;21.60;99.90;;;;;;4977342;28;20518;-86
2023/08/14 05:58:05;;;;;;;0.50;0.50;;;20.50;99.90;;;;;;4992602;28;20136;-86
2023/08/14 06:00:32;;;;;;;0.55;0.55;;;20.30;99.90;;;;;;4991521;28;20519;-85
2023/08/14 06:02:58;;;;;;;0.57;0.57;;;19.80;99.90;;;;;;4993348;28;20607;-86
2023/08/14 06:05:23;;;;;;;0.50;0.50;;;19.70;99.90;;;;;;4995233;28;20070;-86
2023/08/14 06:07:51;;;;;;;0.50;0.50;;;19.70;99.90;;;;;;4994961;28;20168;-85
2023/08/14 06:10:17;;;;;;;0.60;0.60;;;19.60;99.90;;;;;;4990245;28;20135;-85
2023/08/14 06:12:48;;;;;;;0.57;0.57;;;19.60;99.90;;;;;;4994398;28;20049;-85
2023/08/14 06:15:14;;;;;;;0.50;0.50;;;19.70;99.90;;;;;;4992888;28;20451;-87
2023/08/14 06:17:41;;;;;;;0.50;0.50;;;20.10;99.90;;;;;;4982826;28;20496;-85
2023/08/14 06:20:07;;;;;;;0.50;0.50;;;20.00;99.90;;;;;;4997752;28;20579;-87
2023/08/14 06:22:41;;;;;;;0.50;0.50;;;19.90;99.90;;;;;;4992321;28;20078;-87
2023/08/14 06:25:07;;;;;;;0.50;0.50;;;20.00;99.90;;;;;;4993933;28;20038;-88
2023/08/14 06:27:33;;;;;;;0.50;0.50;;;20.20;99.90;;;;;;4994248;28;20046;-88
2023/08/14 06:29:59;;;;;;;0.50;0.50;;;20.20;99.90;;;;;;4995140;28;20058;-87
2023/08/14 06:32:25;;;;;;;0.50;0.50;;;20.20;99.90;;;;;;4995143;28;20046;-87
2023/08/14 06:34:51;;;;;;;0.50;0.50;;;20.20;99.90;;;;;;4998272;28;20041;-87
2023/08/14 06:37:17;;;;;;;0.50;0.50;;;20.10;99.90;;;;;;4995700;28;20042;-88
2023/08/14 06:39:42;;;;;;;0.50;0.50;;;20.20;99.90;;;;;;4984403;28;20169;-89
2023/08/14 06:42:08;;;;;;;0.50;0.50;;;20.00;99.90;;;;;;4997404;28;20050;-88
2023/08/14 06:44:34;;;;;;;0.52;0.52;;;20.00;99.90;;;;;;4982668;28;20061;-89
2023/08/14 06:47:00;;;;;;;0.50;0.50;;;20.00;99.90;;;;;;4981358;28;20091;-88
2023/08/14 06:49:27;;;;;;;0.50;0.50;;;20.10;99.90;;;;;;4994587;28;20104;-88
2023/08/14 06:51:53;;;;;;;0.50;0.50;;;20.10;99.90;;;;;;4995352;28;20105;-89
2023/08/14 06:54:19;;;;;;;0.50;0.50;;;19.90;99.90;;;;;;4980578;28;20056;-88
2023/08/14 06:56:45;;;;;;;0.50;0.50;;;19.80;99.90;;;;;;4974136;28;20046;-88
2023/08/14 06:59:11;;;;;;;0.50;0.50;;;19.80;99.90;;;;;;4998837;28;20057;-89
2023/08/14 07:01:36;;;;;;;0.50;0.50;;;19.80;99.90;;;;;;4990122;28;20054;-88
2023/08/14 07:04:03;;;;;;;0.50;0.50;;;19.70;99.90;;;;;;4996496;28;20053;-89
2023/08/14 07:06:28;;;;;;;0.50;0.50;;;19.80;99.90;;;;;;4985820;28;20599;-89
2023/08/14 07:08:54;;;;;;;0.50;0.50;;;19.80;99.90;;;;;;4982823;28;20132;-89
2023/08/14 07:11:20;;;;;;;0.50;0.50;;;19.80;99.90;;;;;;5002709;28;20377;-89
2023/08/14 07:13:45;;;;;;;0.50;0.50;;;19.80;99.90;;;;;;4979723;28;20034;-90
2023/08/14 07:16:11;;;;;;;0.50;0.50;;;19.80;99.90;;;;;;4997033;28;20108;-89
2023/08/14 07:18:37;;;;;;;0.50;0.50;;;19.80;99.90;;;;;;4980361;28;20593;-89
2023/08/14 07:21:03;;;;;;;0.50;0.50;;;20.00;99.90;;;;;;5021520;28;20046;-88
2023/08/14 07:23:29;;;;;;;0.50;0.50;;;20.00;99.90;;;;;;4993355;28;20073;-89
2023/08/14 07:25:59;;;;;;;0.50;0.50;;;19.90;99.90;;;;;;4994789;28;20088;-89
2023/08/14 07:28:25;;;;;;;0.40;0.40;;;19.90;99.90;;;;;;4994394;28;20496;-90
2023/08/14 07:30:51;;;;;;;0.50;0.50;;;20.00;99.90;;;;;;4984526;28;20121;-89
2023/08/14 07:33:17;;;;;;;0.50;0.50;;;20.10;99.90;;;;;;4997032;28;20132;-87
2023/08/14 07:35:42;;;;;;;0.50;0.50;;;20.10;99.90;;;;;;4975915;28;20077;-90
2023/08/14 07:38:08;;;;;;;0.50;0.50;;;20.10;99.90;;;;;;4982312;28;20046;-88
2023/08/14 07:40:34;;;;;;;0.50;0.50;;;20.00;99.90;;;;;;4998001;28;20050;-89
2023/08/14 07:42:59;;;;;;;0.40;0.40;;;20.00;99.90;;;;;;4993240;28;20389;-89
2023/08/14 07:45:25;;;;;;;0.40;0.40;;;20.20;99.90;;;;;;4995043;28;20081;-90
2023/08/14 07:47:51;;;;;;;0.40;0.40;;;20.40;99.90;;;;;;4994810;28;20069;-88
2023/08/14 07:50:17;;;;;;;0.40;0.40;;;20.40;99.90;;;;;;5001038;28;20096;-88
2023/08/14 07:52:42;;;;;;;0.47;0.47;;;20.50;99.90;;;;;;4978963;28;20149;-88
2023/08/14 07:55:08;;;;;;;0.40;0.40;;;20.80;99.90;;;;;;4983995;28;20065;-89
2023/08/14 07:57:34;;;;;;;0.45;0.45;;;21.20;99.90;;;;;;4992720;28;20051;-91
2023/08/14 08:00:00;;;;;;;0.40;0.40;;;21.80;99.90;;;;;;4996577;28;20537;-89
2023/08/14 08:02:25;;;;;;;0.40;0.40;;;21.90;99.90;;;;;;4984082;28;20050;-88
2023/08/14 08:04:51;;;;;;;0.40;0.40;;;22.00;99.90;;;;;;4997667;28;20077;-92
2023/08/14 08:07:17;;;;;;;0.40;0.40;;;21.80;99.90;;;;;;4998428;28;20475;-89
2023/08/14 08:09:42;;;;;;;0.40;0.40;;;22.00;99.90;;;;;;4983783;28;20053;-89
2023/08/14 08:12:08;;;;;;;0.32;0.32;;;22.40;99.90;;;;;;4993680;28;20071;-91
2023/08/14 08:14:35;;;;;;;0.40;0.40;;;22.50;99.90;;;;;;4996715;28;20042;-89
2023/08/14 08:17:01;;;;;;;0.30;0.30;;;22.70;99.90;;;;;;4997202;28;20062;-91
2023/08/14 08:19:26;;;;;;;0.32;0.32;;;22.90;99.90;;;;;;4980370;28;20073;-90
2023/08/14 08:21:52;;;;;;;0.40;0.40;;;22.90;99.90;;;;;;4993748;28;20054;-90
2023/08/14 08:24:19;;;;;;;0.40;0.40;;;23.10;99.90;;;;;;5004149;28;20046;-91
2023/08/14 08:26:45;;;;;;;0.40;0.40;;;23.30;99.90;;;;;;4982451;28;20052;-90
2023/08/14 08:29:10;;;;;;;0.30;0.30;;;23.50;99.90;;;;;;4993150;28;20046;-90
2023/08/14 08:31:36;;;;;;;0.40;0.40;;;23.60;99.90;;;;;;4998542;28;20547;-89
2023/08/14 08:34:02;;;;;;;0.30;0.30;;;23.20;99.90;;;;;;4994577;28;20046;-90
2023/08/14 08:36:27;;;;;;;0.30;0.30;;;23.20;99.90;;;;;;4986694;28;20503;-92
2023/08/14 08:38:53;;;;;;;0.40;0.40;;;23.40;99.90;;;;;;4998935;28;20067;-89
2023/08/14 08:41:29;;;;;;;0.30;0.30;;;23.60;99.90;;;;;;4990050;28;20038;-94
2023/08/14 08:44:17;;;;;;;0.30;0.30;;;23.80;99.90;;;;;;5001093;28;20471;-93
2023/08/14 08:46:52;;;;;;;0.40;0.40;;;24.00;99.90;;;;;;5003818;28;20080;-93
2023/08/14 08:49:21;;;;;;;0.40;0.40;;;24.10;99.90;;;;;;4981932;28;20050;-90
2023/08/14 08:51:48;;;;;;;0.30;0.30;;;24.40;99.90;;;;;;5001029;28;20054;-93
2023/08/14 08:54:14;;;;;;;0.30;0.30;;;24.40;99.90;;;;;;5001718;28;20042;-91
2023/08/14 08:56:41;;;;;;;0.30;0.30;;;24.40;99.90;;;;;;4989034;28;20057;-96
2023/08/14 08:59:08;;;;;;;0.30;0.30;;;24.10;99.90;;;;;;4991229;28;20395;-92
2023/08/14 09:01:34;;;;;;;0.30;0.30;;;24.30;99.90;;;;;;4981540;28;20043;-93
2023/08/14 09:04:01;;;;;;;0.30;0.30;;;24.70;99.90;;;;;;4985347;28;20583;-92
2023/08/14 09:06:26;;;;;;;0.30;0.30;;;24.90;99.90;;;;;;4991513;28;20053;-91
2023/08/14 09:08:52;;;;;;;0.30;0.30;;;24.90;99.90;;;;;;4997040;28;20050;-91
2023/08/14 09:11:18;;;;;;;0.30;0.30;;;24.70;99.90;;;;;;4990433;28;20136;-91
2023/08/14 09:13:44;;;;;;;0.30;0.30;;;25.20;99.90;;;;;;4974127;28;20133;-90
2023/08/14 09:16:17;;;;;;;0.30;0.30;;;25.20;99.90;;;;;;4995651;28;20046;-90
2023/08/14 09:18:46;;;;;;;0.30;0.30;;;25.40;99.90;;;;;;4981677;28;20034;-94
2023/08/14 09:21:12;;;;;;;0.30;0.30;;;25.40;99.90;;;;;;4981534;28;20104;-91
2023/08/14 09:23:39;;;;;;;0.30;0.30;;;25.50;99.90;;;;;;4980297;28;20045;-91
2023/08/14 09:26:05;;;;;;;0.30;0.30;;;25.60;99.90;;;;;;4981162;28;20045;-92
2023/08/14 09:28:35;;;;;;;0.30;0.30;;;25.60;99.90;;;;;;4988106;28;20056;-93
2023/08/14 09:31:07;;;;;;;0.30;0.30;;;25.60;99.90;;;;;;4997806;28;20054;-89
2023/08/14 09:33:33;;;;;;;0.30;0.30;;;25.80;99.90;;;;;;5000587;28;20499;-89
2023/08/14 09:35:59;;;;;;;0.30;0.30;;;25.70;99.90;;;;;;4996066;28;20073;-88
2023/08/14 09:38:28;;;;;;;0.30;0.30;;;25.60;99.90;;;;;;4998419;28;20034;-93
2023/08/14 09:40:58;;;;;;;0.30;0.30;;;25.80;99.90;;;;;;4989632;28;20157;-92
2023/08/14 09:43:25;;;;;;;0.30;0.30;;;25.80;99.90;;;;;;4981472;28;20505;-93
2023/08/14 09:46:11;;;;;;;;;;;;;;;;;;;;;
2023/08/14 09:48:44;;;;;;;0.30;0.30;;;26.00;99.90;;;;;;5004332;28;20067;-89
2023/08/14 09:51:11;;;;;;;0.30;0.30;;;26.20;99.90;;;;;;4986849;28;20062;-92
2023/08/14 09:54:00;;;;;;;0.30;0.30;;;26.40;99.90;;;;;;4983031;28;20042;-92
2023/08/14 09:56:26;;;;;;;0.32;0.32;;;26.40;99.90;;;;;;4996682;28;20073;-94
2023/08/14 09:58:54;;;;;;;0.20;0.20;;;26.70;99.90;;;;;;4980812;28;20511;-93
2023/08/14 10:01:21;;;;;;;0.30;0.30;;;26.20;99.90;;;;;;4985110;28;20060;-89
2023/08/14 10:03:52;;;;;;;0.30;0.30;;;25.40;99.90;;;;;;4997556;28;20042;-91
2023/08/14 10:06:25;;;;;;;0.30;0.30;;;25.50;99.90;;;;;;4997191;28;20050;-94
2023/08/14 10:08:55;;;;;;;0.30;0.30;;;25.90;99.90;;;;;;4987995;28;20563;-93
2023/08/14 10:11:26;;;;;;;0.30;0.30;;;26.10;99.90;;;;;;4996997;28;20052;-92
2023/08/14 10:13:56;;;;;;;0.30;0.30;;;26.00;99.90;;;;;;4985489;28;20488;-90
2023/08/14 10:16:23;;;;;;;0.30;0.30;;;26.10;99.90;;;;;;4997936;28;20050;-90
2023/08/14 10:18:54;;;;;;;0.30;0.30;;;26.50;99.90;;;;;;4984836;28;20057;-95
2023/08/14 10:21:29;;;;;;;0.30;0.30;;;26.70;99.90;;;;;;4987406;28;20054;-93
2023/08/14 10:23:59;;;;;;;0.30;0.30;;;26.90;99.90;;;;;;4982947;28;20056;-89
2023/08/14 10:26:25;;;;;;;0.30;0.30;;;26.80;99.90;;;;;;4995727;28;20425;-91
2023/08/14 10:28:52;;;;;;;0.30;0.30;;;27.00;99.90;;;;;;4995950;28;20446;-93
2023/08/14 10:31:18;;;;;;;0.30;0.30;;;26.70;99.90;;;;;;4987190;28;20170;-90
2023/08/14 10:33:45;;;;;;;0.30;0.30;;;26.40;99.90;;;;;;4984234;28;20080;-89
2023/08/14 10:36:19;;;;;;;0.32;0.32;;;26.70;99.90;;;;;;5000765;28;20050;-90
2023/08/14 10:38:46;;;;;;;;;;;27.10;99.90;;;;;;4985289;28;20046;-88
2023/08/14 10:41:16;;;;;;;0.20;0.20;;;27.30;99.90;;;;;;5002770;28;20586;-88
2023/08/14 10:43:42;;;;;;;0.20;0.20;;;27.40;99.90;;;;;;4995509;28;20060;-89
2023/08/14 10:46:17;;;;;;;0.20;0.20;;;27.80;99.90;;;;;;4984083;28;20675;-92
2023/08/14 10:48:47;;;;;;;0.30;0.30;;;27.60;99.90;;;;;;4988121;28;20045;-93
2023/08/14 10:51:20;;;;;;;0.30;0.30;;;27.60;99.90;;;;;;4986709;28;20121;-90
2023/08/14 10:53:47;;;;;;;0.38;0.38;;;27.50;99.90;;;;;;4982280;28;20070;-89
2023/08/14 10:56:13;;;;;;;0.30;0.30;;;27.50;99.90;;;;;;5001539;28;20057;-90
2023/08/14 10:58:44;;;;;;;0.30;0.30;;;27.80;99.90;;;;;;4994168;28;20061;-91
2023/08/14 11:01:14;;;;;;;0.30;0.30;;;28.00;99.90;;;;;;5001515;28;20065;-89
2023/08/14 11:04:03;;;;;;;0.30;0.30;;;27.90;99.90;;;;;;4987318;28;20042;-90
2023/08/14 11:06:48;;;;;;;0.30;0.30;;;27.50;99.90;;;;;;5004729;28;20197;-90
2023/08/14 11:09:15;;;;;;;0.30;0.30;;;27.40;99.90;;;;;;4999032;28;20042;-89
2023/08/14 11:11:48;;;;;;;0.30;0.30;;;27.30;99.90;;;;;;4982554;28;20038;-94
2023/08/14 11:14:23;;;;;;;0.30;0.30;;;27.60;99.90;;;;;;5009406;28;20129;-95
2023/08/14 11:16:49;;;;;;;0.43;0.30;;;27.70;99.90;;;;;;4994782;28;20160;-93
2023/08/14 11:19:17;;;;;;;0.30;0.30;;;27.10;99.90;;;;;;4987639;28;20038;-90
2023/08/14 11:21:55;;;;;;;0.30;0.30;;;26.80;99.90;;;;;;4994072;28;20088;-93
2023/08/14 11:24:21;;;;;;;0.30;0.30;;;26.60;99.90;;;;;;4993666;28;20128;-92
2023/08/14 11:26:47;;;;;;;0.30;0.30;;;26.80;99.90;;;;;;4975696;28;20133;-91
2023/08/14 11:29:12;;;;;;;0.30;0.30;;;27.20;99.90;;;;;;4992280;28;20053;-92
2023/08/14 11:31:42;;;;;;;0.30;0.30;;;26.90;99.90;;;;;;4983415;28;20566;-88
2023/08/14 11:34:07;;;;;;;0.20;0.20;;;26.40;99.90;;;;;;4985755;28;20072;-89
2023/08/14 11:36:33;;;;;;;0.20;0.20;;;26.90;99.90;;;;;;4977947;28;20121;-86
2023/08/14 11:38:59;;;;;;;0.30;0.30;;;27.10;99.90;;;;;;4978638;28;20115;-87
2023/08/14 11:41:24;;;;;;;0.40;0.40;;;26.60;99.90;;;;;;5001897;28;20050;-87
2023/08/14 11:43:50;;;;;;;0.30;0.30;;;26.30;99.90;;;;;;4991501;28;20192;-87
2023/08/14 11:46:17;;;;;;;0.28;0.28;;;25.80;99.90;;;;;;4998643;28;20061;-86
2023/08/14 11:48:43;;;;;;;0.28;0.28;;;25.80;99.90;;;;;;4992309;28;20042;-88
2023/08/14 11:51:09;;;;;;;0.28;0.28;;;25.70;99.90;;;;;;4985737;28;20132;-88
2023/08/14 11:53:35;;;;;;;0.30;0.30;;;25.70;99.90;;;;;;4993642;28;20122;-89
2023/08/14 11:56:02;;;;;;;0.30;0.30;;;25.80;99.90;;;;;;4994290;28;20447;-90
2023/08/14 11:58:28;;;;;;;0.30;0.30;;;26.50;99.90;;;;;;4990317;28;20128;-89
2023/08/14 12:00:56;;;;;;;0.30;0.30;;;27.10;99.90;;;;;;4978837;28;20134;-91
2023/08/14 12:03:30;;;;;;;0.30;0.30;;;27.00;99.90;;;;;;5002915;28;20042;-91
2023/08/14 12:08:52;;;;;;;0.40;0.40;;;26.90;99.90;;;;;;4995580;28;20487;-91
2023/08/14 12:11:21;;;;;;;0.30;0.30;;;27.00;99.90;;;;;;4989467;28;20049;-92
2023/08/14 12:13:51;;;;;;;0.30;0.30;;;26.30;99.90;;;;;;4987677;28;20156;-92
2023/08/14 12:16:19;;;;;;;0.30;0.30;;;26.40;99.90;;;;;;5000801;28;20050;-88
2023/08/14 12:18:48;;;;;;;0.30;0.30;;;26.90;99.90;;;;;;4994998;28;20125;-94
2023/08/14 12:21:14;;;;;;;0.30;0.30;;;26.90;99.90;;;;;;4999468;28;20403;-88
2023/08/14 12:23:48;;;;;;;0.30;0.30;;;26.00;99.90;;;;;;4982740;28;20054;-89
2023/08/14 12:26:15;;;;;;;0.30;0.30;;;26.80;99.90;;;;;;4991756;28;20042;-89
2023/08/14 12:28:46;;;;;;;0.30;0.30;;;26.90;99.90;;;;;;4985451;28;20053;-93
2023/08/14 12:31:15;;;;;;;0.30;0.30;;;26.90;99.90;;;;;;4986395;28;20121;-91
2023/08/14 12:34:04;;;;;;;0.30;0.30;;;26.60;99.90;;;;;;4992036;28;20034;-93
2023/08/14 12:36:30;;;;;;;0.30;0.30;;;27.40;99.90;;;;;;4993609;28;20128;-89
2023/08/14 12:38:56;;;;;;;0.30;0.30;;;27.50;99.90;;;;;;4982097;28;20046;-90
2023/08/14 12:41:25;;;;;;;0.30;0.30;;;27.60;99.90;;;;;;4984866;28;20071;-95
2023/08/14 12:43:53;;;;;;;0.30;0.30;;;28.10;99.90;;;;;;4986808;28;20043;-95
2023/08/14 12:46:28;;;;;;;0.30;0.30;;;28.60;99.90;;;;;;5003143;28;20049;-94
2023/08/14 12:48:54;;;;;;;0.30;0.30;;;28.40;99.90;;;;;;5001904;28;20047;-89
2023/08/14 12:51:19;;;;;;;0.30;0.30;;;28.30;99.90;;;;;;4985086;28;20042;-90
2023/08/14 12:53:45;;;;;;;0.30;0.30;;;28.00;99.90;;;;;;4982717;28;20038;-91